sensor_id;sensor_type;location;lat;lon;timestamp;P1;durP1;ratioP1;P2;durP2;ratioP2
77724;SDS011;66892;53.236;6.550;2023-05-01T00:01:37;17.40;;;5.75;;
77724;SDS011;66892;53.236;6.550;2023-05-01T00:04:03;18.05;;;5.63;;
77724;SDS011;66892;53.236;6.550;2023-05-01T00:06:29;15.32;;;5.15;;
77724;SDS011;66892;53.236;6.550;2023-05-01T00:08:57;19.52;;;5.07;;
77724;SDS011;66892;53.236;6.550;2023-05-01T00:11:25;14.65;;;5.60;;
77724;SDS011;66892;53.236;6.550;2023-05-01T00:13:51;17.58;;;5.90;;
77724;SDS011;66892;53.236;6.550;2023-05-01T00:16:18;16.35;;;5.88;;
77724;SDS011;66892;53.236;6.550;2023-05-01T00:18:44;20.67;;;6.28;;
77724;SDS011;66892;53.236;6.550;2023-05-01T00:21:10;18.30;;;5.93;;
77724;SDS011;66892;53.236;6.550;2023-05-01T00:23:36;15.27;;;5.63;;
77724;SDS011;66892;53.236;6.550;2023-05-01T00:26:02;16.23;;;5.68;;
77724;SDS011;66892;53.236;6.550;2023-05-01T00:28:30;19.02;;;6.28;;
77724;SDS011;66892;53.236;6.550;2023-05-01T00:30:57;16.45;;;5.43;;
77724;SDS011;66892;53.236;6.550;2023-05-01T00:33:23;17.33;;;4.88;;
77724;SDS011;66892;53.236;6.550;2023-05-01T00:35:49;19.13;;;7.15;;
77724;SDS011;66892;53.236;6.550;2023-05-01T00:38:17;17.00;;;5.82;;
77724;SDS011;66892;53.236;6.550;2023-05-01T00:40:43;17.05;;;5.10;;
77724;SDS011;66892;53.236;6.550;2023-05-01T00:43:12;18.88;;;7.35;;
77724;SDS011;66892;53.236;6.550;2023-05-01T00:45:40;17.10;;;5.47;;
77724;SDS011;66892;53.236;6.550;2023-05-01T00:48:08;23.25;;;5.68;;
77724;SDS011;66892;53.236;6.550;2023-05-01T00:50:35;14.77;;;5.47;;
77724;SDS011;66892;53.236;6.550;2023-05-01T00:53:01;17.23;;;5.22;;
77724;SDS011;66892;53.236;6.550;2023-05-01T00:55:27;19.67;;;5.85;;
77724;SDS011;66892;53.236;6.550;2023-05-01T00:57:54;18.02;;;5.30;;
77724;SDS011;66892;53.236;6.550;2023-05-01T01:00:21;14.52;;;4.78;;
77724;SDS011;66892;53.236;6.550;2023-05-01T01:02:50;16.60;;;5.40;;
77724;SDS011;66892;53.236;6.550;2023-05-01T01:05:16;18.48;;;6.80;;
77724;SDS011;66892;53.236;6.550;2023-05-01T01:07:47;16.23;;;5.07;;
77724;SDS011;66892;53.236;6.550;2023-05-01T01:10:22;21.23;;;5.60;;
77724;SDS011;66892;53.236;6.550;2023-05-01T01:12:57;19.35;;;5.47;;
77724;SDS011;66892;53.236;6.550;2023-05-01T01:15:30;19.88;;;6.03;;
77724;SDS011;66892;53.236;6.550;2023-05-01T01:18:03;20.52;;;6.32;;
77724;SDS011;66892;53.236;6.550;2023-05-01T01:20:37;18.67;;;5.57;;
77724;SDS011;66892;53.236;6.550;2023-05-01T01:23:20;19.40;;;5.97;;
77724;SDS011;66892;53.236;6.550;2023-05-01T01:26:23;16.55;;;5.75;;
77724;SDS011;66892;53.236;6.550;2023-05-01T01:29:09;15.60;;;5.63;;
77724;SDS011;66892;53.236;6.550;2023-05-01T01:32:08;17.00;;;5.38;;
77724;SDS011;66892;53.236;6.550;2023-05-01T01:34:47;17.85;;;5.85;;
77724;SDS011;66892;53.236;6.550;2023-05-01T01:37:16;18.33;;;6.05;;
77724;SDS011;66892;53.236;6.550;2023-05-01T01:39:48;15.73;;;5.97;;
77724;SDS011;66892;53.236;6.550;2023-05-01T01:44:46;18.13;;;5.65;;
77724;SDS011;66892;53.236;6.550;2023-05-01T01:47:16;16.80;;;5.32;;
77724;SDS011;66892;53.236;6.550;2023-05-01T01:49:47;16.95;;;5.35;;
77724;SDS011;66892;53.236;6.550;2023-05-01T01:52:16;15.18;;;5.60;;
77724;SDS011;66892;53.236;6.550;2023-05-01T01:54:47;14.07;;;5.15;;
77724;SDS011;66892;53.236;6.550;2023-05-01T01:57:17;19.90;;;6.20;;
77724;SDS011;66892;53.236;6.550;2023-05-01T01:59:45;17.20;;;5.43;;
77724;SDS011;66892;53.236;6.550;2023-05-01T02:02:13;18.92;;;5.97;;
77724;SDS011;66892;53.236;6.550;2023-05-01T02:04:41;18.45;;;6.93;;
77724;SDS011;66892;53.236;6.550;2023-05-01T02:07:11;17.38;;;6.07;;
77724;SDS011;66892;53.236;6.550;2023-05-01T02:09:39;16.15;;;5.30;;
77724;SDS011;66892;53.236;6.550;2023-05-01T02:12:07;19.13;;;5.93;;
77724;SDS011;66892;53.236;6.550;2023-05-01T02:14:34;16.85;;;5.50;;
77724;SDS011;66892;53.236;6.550;2023-05-01T02:17:01;20.30;;;5.90;;
77724;SDS011;66892;53.236;6.550;2023-05-01T02:19:29;22.98;;;6.18;;
77724;SDS011;66892;53.236;6.550;2023-05-01T02:21:58;19.67;;;6.35;;
77724;SDS011;66892;53.236;6.550;2023-05-01T02:24:27;21.17;;;5.80;;
77724;SDS011;66892;53.236;6.550;2023-05-01T02:26:55;18.27;;;5.85;;
77724;SDS011;66892;53.236;6.550;2023-05-01T02:29:25;19.70;;;6.00;;
77724;SDS011;66892;53.236;6.550;2023-05-01T02:31:52;18.80;;;6.25;;
77724;SDS011;66892;53.236;6.550;2023-05-01T02:34:18;21.58;;;6.43;;
77724;SDS011;66892;53.236;6.550;2023-05-01T02:36:44;18.83;;;6.78;;
77724;SDS011;66892;53.236;6.550;2023-05-01T02:39:10;18.05;;;6.05;;
77724;SDS011;66892;53.236;6.550;2023-05-01T02:41:38;20.17;;;6.10;;
77724;SDS011;66892;53.236;6.550;2023-05-01T02:44:06;16.38;;;5.68;;
77724;SDS011;66892;53.236;6.550;2023-05-01T02:46:35;24.35;;;6.72;;
77724;SDS011;66892;53.236;6.550;2023-05-01T02:49:02;18.02;;;6.25;;
77724;SDS011;66892;53.236;6.550;2023-05-01T02:51:29;22.55;;;7.22;;
77724;SDS011;66892;53.236;6.550;2023-05-01T02:53:56;19.73;;;5.85;;
77724;SDS011;66892;53.236;6.550;2023-05-01T02:56:24;21.70;;;6.80;;
77724;SDS011;66892;53.236;6.550;2023-05-01T02:58:53;19.08;;;6.10;;
77724;SDS011;66892;53.236;6.550;2023-05-01T03:01:20;19.55;;;6.45;;
77724;SDS011;66892;53.236;6.550;2023-05-01T03:03:46;20.08;;;5.95;;
77724;SDS011;66892;53.236;6.550;2023-05-01T03:06:12;18.90;;;5.60;;
77724;SDS011;66892;53.236;6.550;2023-05-01T03:08:41;19.13;;;6.35;;
77724;SDS011;66892;53.236;6.550;2023-05-01T03:11:07;21.25;;;6.63;;
77724;SDS011;66892;53.236;6.550;2023-05-01T03:13:34;21.33;;;5.97;;
77724;SDS011;66892;53.236;6.550;2023-05-01T03:16:01;20.00;;;5.55;;
77724;SDS011;66892;53.236;6.550;2023-05-01T03:18:29;24.00;;;6.03;;
77724;SDS011;66892;53.236;6.550;2023-05-01T03:20:55;23.08;;;6.72;;
77724;SDS011;66892;53.236;6.550;2023-05-01T03:23:21;20.75;;;6.32;;
77724;SDS011;66892;53.236;6.550;2023-05-01T03:25:48;20.88;;;6.80;;
77724;SDS011;66892;53.236;6.550;2023-05-01T03:28:14;22.75;;;6.25;;
77724;SDS011;66892;53.236;6.550;2023-05-01T03:30:41;22.05;;;6.53;;
77724;SDS011;66892;53.236;6.550;2023-05-01T03:33:08;20.83;;;7.00;;
77724;SDS011;66892;53.236;6.550;2023-05-01T03:35:34;21.85;;;6.57;;
77724;SDS011;66892;53.236;6.550;2023-05-01T03:38:00;20.08;;;7.03;;
77724;SDS011;66892;53.236;6.550;2023-05-01T03:40:26;24.05;;;7.00;;
77724;SDS011;66892;53.236;6.550;2023-05-01T03:42:52;21.10;;;7.07;;
77724;SDS011;66892;53.236;6.550;2023-05-01T03:45:18;19.17;;;6.07;;
77724;SDS011;66892;53.236;6.550;2023-05-01T03:47:44;20.88;;;5.93;;
77724;SDS011;66892;53.236;6.550;2023-05-01T03:50:11;20.70;;;6.53;;
77724;SDS011;66892;53.236;6.550;2023-05-01T03:52:39;20.83;;;7.18;;
77724;SDS011;66892;53.236;6.550;2023-05-01T03:55:05;22.50;;;6.63;;
77724;SDS011;66892;53.236;6.550;2023-05-01T03:57:32;21.33;;;6.80;;
77724;SDS011;66892;53.236;6.550;2023-05-01T03:59:58;19.88;;;6.40;;
77724;SDS011;66892;53.236;6.550;2023-05-01T04:02:24;19.25;;;6.93;;
77724;SDS011;66892;53.236;6.550;2023-05-01T04:04:52;24.55;;;7.63;;
77724;SDS011;66892;53.236;6.550;2023-05-01T04:07:19;19.05;;;7.38;;
77724;SDS011;66892;53.236;6.550;2023-05-01T04:09:45;22.33;;;7.82;;
77724;SDS011;66892;53.236;6.550;2023-05-01T04:12:12;22.58;;;7.07;;
77724;SDS011;66892;53.236;6.550;2023-05-01T04:14:38;19.13;;;6.47;;
77724;SDS011;66892;53.236;6.550;2023-05-01T04:17:04;23.05;;;7.22;;
77724;SDS011;66892;53.236;6.550;2023-05-01T04:19:30;29.02;;;8.05;;
77724;SDS011;66892;53.236;6.550;2023-05-01T04:21:56;23.55;;;7.32;;
77724;SDS011;66892;53.236;6.550;2023-05-01T04:24:24;23.75;;;6.80;;
77724;SDS011;66892;53.236;6.550;2023-05-01T04:26:50;21.63;;;6.82;;
77724;SDS011;66892;53.236;6.550;2023-05-01T04:29:16;23.23;;;6.90;;
77724;SDS011;66892;53.236;6.550;2023-05-01T04:31:42;21.00;;;7.22;;
77724;SDS011;66892;53.236;6.550;2023-05-01T04:34:08;18.67;;;6.80;;
77724;SDS011;66892;53.236;6.550;2023-05-01T04:36:34;19.00;;;7.05;;
77724;SDS011;66892;53.236;6.550;2023-05-01T04:39:00;21.48;;;6.82;;
77724;SDS011;66892;53.236;6.550;2023-05-01T04:41:27;18.48;;;6.18;;
77724;SDS011;66892;53.236;6.550;2023-05-01T04:43:53;22.38;;;7.10;;
77724;SDS011;66892;53.236;6.550;2023-05-01T04:46:19;20.20;;;6.95;;
77724;SDS011;66892;53.236;6.550;2023-05-01T04:48:45;20.00;;;6.47;;
77724;SDS011;66892;53.236;6.550;2023-05-01T04:51:11;20.67;;;7.30;;
77724;SDS011;66892;53.236;6.550;2023-05-01T04:53:38;18.77;;;6.72;;
77724;SDS011;66892;53.236;6.550;2023-05-01T04:56:04;24.77;;;7.32;;
77724;SDS011;66892;53.236;6.550;2023-05-01T04:58:31;19.65;;;7.18;;
77724;SDS011;66892;53.236;6.550;2023-05-01T05:00:57;21.63;;;6.78;;
77724;SDS011;66892;53.236;6.550;2023-05-01T05:03:23;21.33;;;6.72;;
77724;SDS011;66892;53.236;6.550;2023-05-01T05:05:49;19.83;;;7.13;;
77724;SDS011;66892;53.236;6.550;2023-05-01T05:08:15;21.52;;;8.02;;
77724;SDS011;66892;53.236;6.550;2023-05-01T05:10:41;25.65;;;7.05;;
77724;SDS011;66892;53.236;6.550;2023-05-01T05:13:07;20.13;;;6.47;;
77724;SDS011;66892;53.236;6.550;2023-05-01T05:15:35;16.17;;;6.43;;
77724;SDS011;66892;53.236;6.550;2023-05-01T05:18:02;20.30;;;7.20;;
77724;SDS011;66892;53.236;6.550;2023-05-01T05:20:28;18.38;;;7.22;;
77724;SDS011;66892;53.236;6.550;2023-05-01T05:22:54;19.27;;;6.82;;
77724;SDS011;66892;53.236;6.550;2023-05-01T05:25:20;17.30;;;6.47;;
77724;SDS011;66892;53.236;6.550;2023-05-01T05:27:46;22.38;;;7.20;;
77724;SDS011;66892;53.236;6.550;2023-05-01T05:30:12;20.55;;;6.78;;
77724;SDS011;66892;53.236;6.550;2023-05-01T05:32:40;20.75;;;6.38;;
77724;SDS011;66892;53.236;6.550;2023-05-01T05:35:06;19.35;;;6.72;;
77724;SDS011;66892;53.236;6.550;2023-05-01T05:37:32;20.83;;;6.35;;
77724;SDS011;66892;53.236;6.550;2023-05-01T05:39:59;19.27;;;6.90;;
77724;SDS011;66892;53.236;6.550;2023-05-01T05:42:25;19.92;;;6.43;;
77724;SDS011;66892;53.236;6.550;2023-05-01T05:44:51;17.75;;;7.03;;
77724;SDS011;66892;53.236;6.550;2023-05-01T05:47:17;23.67;;;7.63;;
77724;SDS011;66892;53.236;6.550;2023-05-01T05:49:45;22.23;;;6.80;;
77724;SDS011;66892;53.236;6.550;2023-05-01T05:52:11;20.13;;;6.55;;
77724;SDS011;66892;53.236;6.550;2023-05-01T05:54:37;16.42;;;6.95;;
77724;SDS011;66892;53.236;6.550;2023-05-01T05:57:03;19.42;;;7.25;;
77724;SDS011;66892;53.236;6.550;2023-05-01T05:59:29;25.10;;;6.97;;
77724;SDS011;66892;53.236;6.550;2023-05-01T06:01:55;19.15;;;7.15;;
77724;SDS011;66892;53.236;6.550;2023-05-01T06:04:21;17.42;;;6.90;;
77724;SDS011;66892;53.236;6.550;2023-05-01T06:06:48;17.92;;;6.90;;
77724;SDS011;66892;53.236;6.550;2023-05-01T06:09:14;21.83;;;7.25;;
77724;SDS011;66892;53.236;6.550;2023-05-01T06:11:41;23.65;;;7.13;;
77724;SDS011;66892;53.236;6.550;2023-05-01T06:14:07;19.02;;;6.47;;
77724;SDS011;66892;53.236;6.550;2023-05-01T06:16:34;25.55;;;7.55;;
77724;SDS011;66892;53.236;6.550;2023-05-01T06:19:00;18.38;;;6.72;;
77724;SDS011;66892;53.236;6.550;2023-05-01T06:21:26;19.05;;;6.05;;
77724;SDS011;66892;53.236;6.550;2023-05-01T06:23:53;15.65;;;6.85;;
77724;SDS011;66892;53.236;6.550;2023-05-01T06:26:19;18.50;;;7.05;;
77724;SDS011;66892;53.236;6.550;2023-05-01T06:28:46;18.88;;;7.78;;
77724;SDS011;66892;53.236;6.550;2023-05-01T06:31:12;17.30;;;7.18;;
77724;SDS011;66892;53.236;6.550;2023-05-01T06:33:38;21.40;;;7.05;;
77724;SDS011;66892;53.236;6.550;2023-05-01T06:36:04;22.08;;;7.97;;
77724;SDS011;66892;53.236;6.550;2023-05-01T06:38:30;22.13;;;7.90;;
77724;SDS011;66892;53.236;6.550;2023-05-01T06:40:58;19.63;;;7.13;;
77724;SDS011;66892;53.236;6.550;2023-05-01T06:43:24;23.73;;;8.50;;
77724;SDS011;66892;53.236;6.550;2023-05-01T06:45:55;22.95;;;7.75;;
77724;SDS011;66892;53.236;6.550;2023-05-01T06:48:21;24.08;;;8.27;;
77724;SDS011;66892;53.236;6.550;2023-05-01T06:50:47;27.80;;;9.20;;
77724;SDS011;66892;53.236;6.550;2023-05-01T06:53:14;22.88;;;9.07;;
77724;SDS011;66892;53.236;6.550;2023-05-01T06:55:40;19.42;;;7.95;;
77724;SDS011;66892;53.236;6.550;2023-05-01T06:58:07;24.38;;;8.27;;
77724;SDS011;66892;53.236;6.550;2023-05-01T07:00:33;23.73;;;7.25;;
77724;SDS011;66892;53.236;6.550;2023-05-01T07:02:59;24.30;;;8.77;;
77724;SDS011;66892;53.236;6.550;2023-05-01T07:05:27;27.27;;;7.85;;
77724;SDS011;66892;53.236;6.550;2023-05-01T07:07:53;21.63;;;7.40;;
77724;SDS011;66892;53.236;6.550;2023-05-01T07:10:19;30.48;;;7.90;;
77724;SDS011;66892;53.236;6.550;2023-05-01T07:12:45;27.85;;;7.90;;
77724;SDS011;66892;53.236;6.550;2023-05-01T07:15:13;21.42;;;7.38;;
77724;SDS011;66892;53.236;6.550;2023-05-01T07:17:40;24.83;;;7.43;;
77724;SDS011;66892;53.236;6.550;2023-05-01T07:20:07;27.70;;;8.00;;
77724;SDS011;66892;53.236;6.550;2023-05-01T07:22:35;26.15;;;8.38;;
77724;SDS011;66892;53.236;6.550;2023-05-01T07:25:00;26.00;;;7.53;;
77724;SDS011;66892;53.236;6.550;2023-05-01T07:27:28;27.70;;;8.10;;
77724;SDS011;66892;53.236;6.550;2023-05-01T07:29:54;33.47;;;10.18;;
77724;SDS011;66892;53.236;6.550;2023-05-01T07:32:22;31.85;;;9.40;;
77724;SDS011;66892;53.236;6.550;2023-05-01T07:34:48;20.92;;;7.88;;
77724;SDS011;66892;53.236;6.550;2023-05-01T07:37:14;24.95;;;8.70;;
77724;SDS011;66892;53.236;6.550;2023-05-01T07:39:40;23.50;;;7.78;;
77724;SDS011;66892;53.236;6.550;2023-05-01T07:42:06;24.25;;;7.60;;
77724;SDS011;66892;53.236;6.550;2023-05-01T07:44:32;31.15;;;8.13;;
77724;SDS011;66892;53.236;6.550;2023-05-01T07:47:01;23.98;;;7.05;;
77724;SDS011;66892;53.236;6.550;2023-05-01T07:49:29;25.90;;;7.88;;
77724;SDS011;66892;53.236;6.550;2023-05-01T07:52:00;19.58;;;7.43;;
77724;SDS011;66892;53.236;6.550;2023-05-01T07:54:26;26.00;;;7.72;;
77724;SDS011;66892;53.236;6.550;2023-05-01T07:56:52;20.50;;;7.78;;
77724;SDS011;66892;53.236;6.550;2023-05-01T07:59:18;24.10;;;7.72;;
77724;SDS011;66892;53.236;6.550;2023-05-01T08:01:44;22.13;;;7.25;;
77724;SDS011;66892;53.236;6.550;2023-05-01T08:04:10;25.00;;;7.63;;
77724;SDS011;66892;53.236;6.550;2023-05-01T08:06:37;18.88;;;6.90;;
77724;SDS011;66892;53.236;6.550;2023-05-01T08:09:03;20.70;;;7.30;;
77724;SDS011;66892;53.236;6.550;2023-05-01T08:11:29;23.50;;;6.80;;
77724;SDS011;66892;53.236;6.550;2023-05-01T08:13:55;23.17;;;7.30;;
77724;SDS011;66892;53.236;6.550;2023-05-01T08:16:21;19.88;;;7.28;;
77724;SDS011;66892;53.236;6.550;2023-05-01T08:18:47;23.92;;;7.15;;
77724;SDS011;66892;53.236;6.550;2023-05-01T08:21:13;19.23;;;6.93;;
77724;SDS011;66892;53.236;6.550;2023-05-01T08:23:40;17.00;;;6.00;;
77724;SDS011;66892;53.236;6.550;2023-05-01T08:26:06;23.25;;;6.22;;
77724;SDS011;66892;53.236;6.550;2023-05-01T08:28:33;18.02;;;5.68;;
77724;SDS011;66892;53.236;6.550;2023-05-01T08:31:00;17.70;;;6.60;;
77724;SDS011;66892;53.236;6.550;2023-05-01T08:33:26;17.00;;;6.50;;
77724;SDS011;66892;53.236;6.550;2023-05-01T08:35:52;17.48;;;6.18;;
77724;SDS011;66892;53.236;6.550;2023-05-01T08:38:18;21.23;;;6.43;;
77724;SDS011;66892;53.236;6.550;2023-05-01T08:40:49;16.33;;;6.32;;
77724;SDS011;66892;53.236;6.550;2023-05-01T08:43:17;19.48;;;5.82;;
77724;SDS011;66892;53.236;6.550;2023-05-01T08:45:43;18.98;;;5.97;;
77724;SDS011;66892;53.236;6.550;2023-05-01T08:48:12;24.05;;;8.70;;
77724;SDS011;66892;53.236;6.550;2023-05-01T08:50:42;16.83;;;5.95;;
77724;SDS011;66892;53.236;6.550;2023-05-01T08:53:10;16.52;;;5.82;;
77724;SDS011;66892;53.236;6.550;2023-05-01T08:55:38;18.25;;;5.35;;
77724;SDS011;66892;53.236;6.550;2023-05-01T08:58:09;17.50;;;5.53;;
77724;SDS011;66892;53.236;6.550;2023-05-01T09:00:38;16.38;;;6.10;;
77724;SDS011;66892;53.236;6.550;2023-05-01T09:03:04;16.42;;;6.00;;
77724;SDS011;66892;53.236;6.550;2023-05-01T09:05:33;18.75;;;5.57;;
77724;SDS011;66892;53.236;6.550;2023-05-01T09:07:59;20.25;;;7.00;;
77724;SDS011;66892;53.236;6.550;2023-05-01T09:10:25;14.80;;;5.43;;
77724;SDS011;66892;53.236;6.550;2023-05-01T09:12:54;17.15;;;5.32;;
77724;SDS011;66892;53.236;6.550;2023-05-01T09:15:25;18.92;;;6.07;;
77724;SDS011;66892;53.236;6.550;2023-05-01T09:17:52;14.57;;;4.85;;
77724;SDS011;66892;53.236;6.550;2023-05-01T09:20:19;13.65;;;5.20;;
77724;SDS011;66892;53.236;6.550;2023-05-01T09:22:45;17.38;;;5.97;;
77724;SDS011;66892;53.236;6.550;2023-05-01T09:25:11;13.30;;;4.65;;
77724;SDS011;66892;53.236;6.550;2023-05-01T09:27:37;16.40;;;5.72;;
77724;SDS011;66892;53.236;6.550;2023-05-01T09:30:04;20.25;;;5.32;;
77724;SDS011;66892;53.236;6.550;2023-05-01T09:32:33;13.95;;;5.15;;
77724;SDS011;66892;53.236;6.550;2023-05-01T09:35:08;17.08;;;5.10;;
77724;SDS011;66892;53.236;6.550;2023-05-01T09:37:35;14.90;;;4.72;;
77724;SDS011;66892;53.236;6.550;2023-05-01T09:40:04;16.60;;;5.32;;
77724;SDS011;66892;53.236;6.550;2023-05-01T09:42:33;13.02;;;5.32;;
77724;SDS011;66892;53.236;6.550;2023-05-01T09:45:01;15.32;;;4.55;;
77724;SDS011;66892;53.236;6.550;2023-05-01T09:47:29;18.50;;;4.63;;
77724;SDS011;66892;53.236;6.550;2023-05-01T09:49:58;12.00;;;4.75;;
77724;SDS011;66892;53.236;6.550;2023-05-01T09:52:25;12.73;;;4.32;;
77724;SDS011;66892;53.236;6.550;2023-05-01T09:55:04;13.88;;;4.38;;
77724;SDS011;66892;53.236;6.550;2023-05-01T09:57:36;12.20;;;4.60;;
77724;SDS011;66892;53.236;6.550;2023-05-01T10:00:03;11.30;;;4.50;;
77724;SDS011;66892;53.236;6.550;2023-05-01T10:02:34;9.82;;;3.70;;
77724;SDS011;66892;53.236;6.550;2023-05-01T10:05:02;10.18;;;3.33;;
77724;SDS011;66892;53.236;6.550;2023-05-01T10:07:29;14.52;;;3.65;;
77724;SDS011;66892;53.236;6.550;2023-05-01T10:09:55;10.32;;;3.75;;
77724;SDS011;66892;53.236;6.550;2023-05-01T10:12:24;9.00;;;3.28;;
77724;SDS011;66892;53.236;6.550;2023-05-01T10:14:51;10.80;;;3.13;;
77724;SDS011;66892;53.236;6.550;2023-05-01T10:17:18;9.23;;;3.20;;
77724;SDS011;66892;53.236;6.550;2023-05-01T10:19:45;9.57;;;2.90;;
77724;SDS011;66892;53.236;6.550;2023-05-01T10:22:13;7.90;;;2.50;;
77724;SDS011;66892;53.236;6.550;2023-05-01T10:24:39;10.30;;;3.42;;
77724;SDS011;66892;53.236;6.550;2023-05-01T10:27:07;15.05;;;4.10;;
77724;SDS011;66892;53.236;6.550;2023-05-01T10:29:33;13.57;;;4.15;;
77724;SDS011;66892;53.236;6.550;2023-05-01T10:32:01;12.07;;;3.80;;
77724;SDS011;66892;53.236;6.550;2023-05-01T10:34:27;12.73;;;4.20;;
77724;SDS011;66892;53.236;6.550;2023-05-01T10:36:56;11.95;;;3.95;;
77724;SDS011;66892;53.236;6.550;2023-05-01T10:39:29;13.05;;;4.95;;
77724;SDS011;66892;53.236;6.550;2023-05-01T10:42:00;12.88;;;4.93;;
77724;SDS011;66892;53.236;6.550;2023-05-01T10:44:30;13.35;;;4.40;;
77724;SDS011;66892;53.236;6.550;2023-05-01T10:46:56;14.07;;;4.72;;
77724;SDS011;66892;53.236;6.550;2023-05-01T10:49:22;13.57;;;4.60;;
77724;SDS011;66892;53.236;6.550;2023-05-01T10:51:58;14.95;;;5.63;;
77724;SDS011;66892;53.236;6.550;2023-05-01T10:54:30;10.85;;;4.43;;
77724;SDS011;66892;53.236;6.550;2023-05-01T10:56:58;13.18;;;5.15;;
77724;SDS011;66892;53.236;6.550;2023-05-01T10:59:25;12.30;;;4.47;;
77724;SDS011;66892;53.236;6.550;2023-05-01T11:01:52;14.27;;;5.30;;
77724;SDS011;66892;53.236;6.550;2023-05-01T11:07:13;12.27;;;4.57;;
77724;SDS011;66892;53.236;6.550;2023-05-01T11:09:41;13.20;;;5.68;;
77724;SDS011;66892;53.236;6.550;2023-05-01T11:12:08;10.80;;;4.45;;
77724;SDS011;66892;53.236;6.550;2023-05-01T11:17:44;11.35;;;4.03;;
77724;SDS011;66892;53.236;6.550;2023-05-01T11:20:44;13.38;;;4.22;;
77724;SDS011;66892;53.236;6.550;2023-05-01T11:23:16;11.35;;;3.75;;
77724;SDS011;66892;53.236;6.550;2023-05-01T11:25:44;13.70;;;3.90;;
77724;SDS011;66892;53.236;6.550;2023-05-01T11:28:12;10.18;;;4.07;;
77724;SDS011;66892;53.236;6.550;2023-05-01T11:30:44;12.02;;;4.97;;
77724;SDS011;66892;53.236;6.550;2023-05-01T11:33:11;9.60;;;4.05;;
77724;SDS011;66892;53.236;6.550;2023-05-01T11:35:37;10.23;;;3.92;;
77724;SDS011;66892;53.236;6.550;2023-05-01T11:38:03;12.88;;;4.38;;
77724;SDS011;66892;53.236;6.550;2023-05-01T11:40:30;10.68;;;4.15;;
77724;SDS011;66892;53.236;6.550;2023-05-01T11:43:02;11.13;;;3.92;;
77724;SDS011;66892;53.236;6.550;2023-05-01T11:45:29;9.13;;;3.05;;
77724;SDS011;66892;53.236;6.550;2023-05-01T11:47:56;10.57;;;3.75;;
77724;SDS011;66892;53.236;6.550;2023-05-01T11:50:30;10.05;;;2.83;;
77724;SDS011;66892;53.236;6.550;2023-05-01T11:52:56;7.97;;;3.60;;
77724;SDS011;66892;53.236;6.550;2023-05-01T11:55:29;10.75;;;2.70;;
77724;SDS011;66892;53.236;6.550;2023-05-01T11:57:55;5.95;;;2.33;;
77724;SDS011;66892;53.236;6.550;2023-05-01T12:00:26;8.70;;;2.72;;
77724;SDS011;66892;53.236;6.550;2023-05-01T12:02:54;6.82;;;2.20;;
77724;SDS011;66892;53.236;6.550;2023-05-01T12:05:24;6.38;;;2.53;;
77724;SDS011;66892;53.236;6.550;2023-05-01T12:07:51;8.70;;;2.38;;
77724;SDS011;66892;53.236;6.550;2023-05-01T12:10:30;6.55;;;2.60;;
77724;SDS011;66892;53.236;6.550;2023-05-01T12:12:59;7.72;;;2.28;;
77724;SDS011;66892;53.236;6.550;2023-05-01T12:15:27;10.13;;;2.67;;
77724;SDS011;66892;53.236;6.550;2023-05-01T12:17:54;7.93;;;3.17;;
77724;SDS011;66892;53.236;6.550;2023-05-01T12:20:32;7.13;;;2.53;;
77724;SDS011;66892;53.236;6.550;2023-05-01T12:22:59;10.75;;;2.42;;
77724;SDS011;66892;53.236;6.550;2023-05-01T12:25:28;7.10;;;2.33;;
77724;SDS011;66892;53.236;6.550;2023-05-01T12:27:54;8.95;;;3.08;;
77724;SDS011;66892;53.236;6.550;2023-05-01T12:30:23;7.45;;;2.67;;
77724;SDS011;66892;53.236;6.550;2023-05-01T12:32:51;5.47;;;2.67;;
77724;SDS011;66892;53.236;6.550;2023-05-01T12:35:17;6.57;;;2.22;;
77724;SDS011;66892;53.236;6.550;2023-05-01T12:37:44;8.65;;;2.20;;
77724;SDS011;66892;53.236;6.550;2023-05-01T12:40:11;8.05;;;2.47;;
77724;SDS011;66892;53.236;6.550;2023-05-01T12:42:38;6.50;;;2.65;;
77724;SDS011;66892;53.236;6.550;2023-05-01T12:45:05;5.57;;;2.28;;
77724;SDS011;66892;53.236;6.550;2023-05-01T12:47:34;7.47;;;2.50;;
77724;SDS011;66892;53.236;6.550;2023-05-01T12:50:03;6.38;;;2.40;;
77724;SDS011;66892;53.236;6.550;2023-05-01T12:52:31;8.52;;;2.80;;
77724;SDS011;66892;53.236;6.550;2023-05-01T12:55:01;8.45;;;2.25;;
77724;SDS011;66892;53.236;6.550;2023-05-01T12:57:29;8.65;;;2.15;;
77724;SDS011;66892;53.236;6.550;2023-05-01T12:59:59;9.85;;;2.88;;
77724;SDS011;66892;53.236;6.550;2023-05-01T13:02:29;8.38;;;2.30;;
77724;SDS011;66892;53.236;6.550;2023-05-01T13:05:07;10.02;;;2.70;;
77724;SDS011;66892;53.236;6.550;2023-05-01T13:07:35;8.50;;;2.90;;
77724;SDS011;66892;53.236;6.550;2023-05-01T13:10:01;7.50;;;2.35;;
77724;SDS011;66892;53.236;6.550;2023-05-01T13:12:30;8.05;;;3.00;;
77724;SDS011;66892;53.236;6.550;2023-05-01T13:14:57;6.90;;;2.40;;
77724;SDS011;66892;53.236;6.550;2023-05-01T13:17:24;6.00;;;2.55;;
77724;SDS011;66892;53.236;6.550;2023-05-01T13:19:54;7.65;;;2.53;;
77724;SDS011;66892;53.236;6.550;2023-05-01T13:24:55;11.23;;;3.15;;
77724;SDS011;66892;53.236;6.550;2023-05-01T13:27:21;8.60;;;3.03;;
77724;SDS011;66892;53.236;6.550;2023-05-01T13:29:50;7.95;;;3.15;;
77724;SDS011;66892;53.236;6.550;2023-05-01T13:32:20;13.20;;;4.15;;
77724;SDS011;66892;53.236;6.550;2023-05-01T13:34:46;10.32;;;3.30;;
77724;SDS011;66892;53.236;6.550;2023-05-01T13:37:12;11.40;;;3.20;;
77724;SDS011;66892;53.236;6.550;2023-05-01T13:39:40;6.78;;;3.13;;
77724;SDS011;66892;53.236;6.550;2023-05-01T13:42:07;10.32;;;3.30;;
77724;SDS011;66892;53.236;6.550;2023-05-01T13:44:40;8.98;;;3.20;;
77724;SDS011;66892;53.236;6.550;2023-05-01T13:47:08;9.80;;;3.28;;
77724;SDS011;66892;53.236;6.550;2023-05-01T13:49:36;7.68;;;3.13;;
77724;SDS011;66892;53.236;6.550;2023-05-01T13:52:06;7.38;;;2.60;;
77724;SDS011;66892;53.236;6.550;2023-05-01T13:54:32;6.32;;;2.58;;
77724;SDS011;66892;53.236;6.550;2023-05-01T13:57:00;6.47;;;2.65;;
77724;SDS011;66892;53.236;6.550;2023-05-01T13:59:28;10.10;;;2.90;;
77724;SDS011;66892;53.236;6.550;2023-05-01T14:01:58;7.35;;;2.80;;
77724;SDS011;66892;53.236;6.550;2023-05-01T14:04:24;6.82;;;2.97;;
77724;SDS011;66892;53.236;6.550;2023-05-01T14:06:50;6.53;;;2.28;;
77724;SDS011;66892;53.236;6.550;2023-05-01T14:09:16;6.80;;;3.03;;
77724;SDS011;66892;53.236;6.550;2023-05-01T14:11:43;9.32;;;2.70;;
77724;SDS011;66892;53.236;6.550;2023-05-01T14:14:16;8.05;;;2.40;;
77724;SDS011;66892;53.236;6.550;2023-05-01T14:16:45;7.70;;;2.42;;
77724;SDS011;66892;53.236;6.550;2023-05-01T14:19:13;7.63;;;2.45;;
77724;SDS011;66892;53.236;6.550;2023-05-01T14:21:40;7.20;;;2.60;;
77724;SDS011;66892;53.236;6.550;2023-05-01T14:24:09;6.60;;;2.40;;
77724;SDS011;66892;53.236;6.550;2023-05-01T14:26:36;8.52;;;2.90;;
77724;SDS011;66892;53.236;6.550;2023-05-01T14:29:05;8.82;;;3.13;;
77724;SDS011;66892;53.236;6.550;2023-05-01T14:31:34;8.07;;;2.53;;
77724;SDS011;66892;53.236;6.550;2023-05-01T14:34:01;10.25;;;3.97;;
77724;SDS011;66892;53.236;6.550;2023-05-01T14:36:30;7.72;;;2.50;;
77724;SDS011;66892;53.236;6.550;2023-05-01T14:38:57;7.15;;;2.90;;
77724;SDS011;66892;53.236;6.550;2023-05-01T14:41:24;7.88;;;2.63;;
77724;SDS011;66892;53.236;6.550;2023-05-01T14:43:50;8.68;;;2.72;;
77724;SDS011;66892;53.236;6.550;2023-05-01T14:46:21;9.23;;;2.70;;
77724;SDS011;66892;53.236;6.550;2023-05-01T14:48:54;9.48;;;3.72;;
77724;SDS011;66892;53.236;6.550;2023-05-01T14:51:20;10.18;;;3.22;;